Time;durP1;ratioP1;P1;durP2;ratioP2;P2;SDS_P1;SDS_P2;PMS_P1;PMS_P2;Temp;Humidity;BMP_temperature;BMP_pressure;BME280_temperature;BME280_humidity;BME280_pressure;Samples;Min_cycle;Max_cycle;Signal;HPM_P1;HPM_P2
2021/09/06 00:01:47;;;;;;;13.50;8.33;;;;;;;11.00;75.41;98390.17;1785247;80;21012;-84
2021/09/06 00:04:14;;;;;;;15.13;8.93;;;;;;;10.94;78.24;98393.84;1784961;80;21433;-84
2021/09/06 00:06:41;;;;;;;15.93;9.28;;;;;;;10.89;75.88;98392.64;1779077;80;21027;-85
2021/09/06 00:09:09;;;;;;;16.77;9.65;;;;;;;10.86;76.16;98390.05;1757142;80;20972;-84
2021/09/06 00:11:36;;;;;;;18.52;9.53;;;;;;;10.79;77.10;98388.45;1781396;80;21094;-84
2021/09/06 00:14:03;;;;;;;17.60;10.13;;;;;;;10.73;77.32;98388.16;1763305;80;20999;-84
2021/09/06 00:16:29;;;;;;;15.30;8.43;;;;;;;10.72;77.41;98388.19;1754352;81;21048;-84
2021/09/06 00:18:56;;;;;;;15.20;8.20;;;;;;;10.69;76.97;98393.11;1754084;82;20992;-84
2021/09/06 00:21:22;;;;;;;12.95;7.75;;;;;;;10.66;78.30;98395.82;1754258;82;21023;-84
2021/09/06 00:23:49;;;;;;;12.93;7.28;;;;;;;10.63;77.51;98398.56;1754058;82;20968;-84
2021/09/06 00:26:16;;;;;;;12.65;7.53;;;;;;;10.59;76.82;98394.23;1753859;82;21035;-84
2021/09/06 00:28:42;;;;;;;15.72;7.75;;;;;;;10.55;76.77;98400.06;1768863;80;20980;-84
2021/09/06 00:31:12;;;;;;;11.22;6.70;;;;;;;10.51;78.06;98399.24;1764129;80;20936;-84
2021/09/06 00:33:37;;;;;;;12.45;6.03;;;;;;;10.47;77.13;98398.03;1734030;80;21039;-84
2021/09/06 00:36:04;;;;;;;11.53;6.17;;;;;;;10.42;77.79;98395.44;1747509;80;21475;-84
2021/09/06 00:38:33;;;;;;;13.55;6.45;;;;;;;10.40;79.59;98395.94;1759709;81;21105;-84
2021/09/06 00:41:01;;;;;;;10.82;6.35;;;;;;;10.37;77.44;98392.91;1732006;81;21042;-83
2021/09/06 00:43:30;;;;;;;9.88;6.28;;;;;;;10.35;77.96;98390.76;1760014;81;21015;-83
2021/09/06 00:45:56;;;;;;;12.63;6.80;;;;;;;10.33;77.98;98394.35;1759452;81;21584;-83
2021/09/06 00:48:26;;;;;;;9.80;5.95;;;;;;;10.25;78.74;98389.19;1759963;81;20936;-83
2021/09/06 00:50:54;;;;;;;10.32;6.53;;;;;;;10.20;78.07;98389.75;1732328;81;21004;-82
2021/09/06 00:53:22;;;;;;;12.05;5.95;;;;;;;10.17;78.88;98392.89;1759939;81;21019;-83
2021/09/06 00:55:50;;;;;;;12.50;6.92;;;;;;;10.14;78.44;98390.77;1773727;80;20980;-82
2021/09/06 00:58:18;;;;;;;13.58;6.83;;;;;;;10.10;80.15;98395.27;1763733;80;20990;-83
2021/09/06 01:00:45;;;;;;;11.57;5.65;;;;;;;10.08;78.51;98390.44;1759928;81;20992;-84
2021/09/06 01:03:12;;;;;;;12.40;5.45;;;;;;;10.11;78.19;98401.42;1759961;81;21517;-84
2021/09/06 01:05:39;;;;;;;12.73;6.42;;;;;;;10.11;78.93;98402.74;1762162;80;20979;-83
2021/09/06 01:08:22;;;;;;;11.00;6.15;;;;;;;10.14;78.94;98397.39;1743811;82;20969;-83
2021/09/06 01:10:50;;;;;;;11.35;5.70;;;;;;;10.14;81.40;98396.06;1741964;81;21074;-83
2021/09/06 01:13:34;;;;;;;10.93;5.55;;;;;;;10.15;80.11;98393.83;1759750;80;20952;-84
2021/09/06 01:16:01;;;;;;;14.68;5.42;;;;;;;10.12;80.17;98392.13;1789599;80;21460;-84
2021/09/06 01:18:28;;;;;;;9.00;5.30;;;;;;;10.11;80.31;98388.17;1790838;80;20981;-84
2021/09/06 01:20:56;;;;;;;12.15;5.35;;;;;;;10.12;81.28;98388.59;1773418;80;21090;-84
2021/09/06 01:23:26;;;;;;;8.23;5.10;;;;;;;10.15;80.29;98388.09;1759319;80;21397;-84
2021/09/06 01:25:57;;;;;;;9.20;5.12;;;;;;;10.17;80.63;98392.89;1786864;80;21020;-85
2021/09/06 01:28:24;;;;;;;8.78;4.95;;;;;;;10.20;80.56;98391.07;1787265;80;20965;-85
2021/09/06 01:30:51;;;;;;;7.97;4.72;;;;;;;10.24;81.10;98394.08;1696041;83;21024;-84
2021/09/06 01:33:21;;;;;;;19.23;6.85;;;;;;;10.22;80.71;98397.23;1716915;83;21040;-84
2021/09/06 01:35:48;;;;;;;8.65;5.20;;;;;;;10.20;80.46;98392.39;1705575;83;21049;-84
2021/09/06 01:38:15;;;;;;;7.95;4.92;;;;;;;10.11;80.24;98392.15;1700644;84;21048;-84
2021/09/06 01:40:42;;;;;;;10.10;5.65;;;;;;;10.08;80.48;98392.23;1700932;83;21049;-84
2021/09/06 01:43:10;;;;;;;7.85;5.33;;;;;;;10.08;80.49;98396.20;1700824;84;20994;-84
2021/09/06 01:45:37;;;;;;;7.60;5.30;;;;;;;10.04;82.25;98400.23;1707033;83;21071;-84
2021/09/06 01:48:05;;;;;;;10.30;5.45;;;;;;;10.01;80.37;98403.41;1702315;83;21526;-84
2021/09/06 01:50:33;;;;;;;10.75;6.20;;;;;;;9.97;81.21;98400.39;1701159;83;21076;-84
2021/09/06 01:53:00;;;;;;;10.32;5.60;;;;;;;9.87;81.55;98403.66;1728773;83;21420;-84
2021/09/06 01:55:26;;;;;;;14.28;7.40;;;;;;;9.82;80.40;98396.27;1726325;83;21021;-85
2021/09/06 01:57:55;;;;;;;10.28;5.25;;;;;;;9.76;80.76;98401.25;1715808;83;21096;-85
2021/09/06 02:00:23;;;;;;;9.53;5.87;;;;;;;9.72;80.45;98400.89;1700834;84;20992;-84
2021/09/06 02:02:51;;;;;;;10.00;5.90;;;;;;;9.66;80.68;98404.95;1700609;84;21090;-84
2021/09/06 02:05:19;;;;;;;11.40;5.35;;;;;;;9.62;80.63;98404.15;1699777;84;21003;-83
2021/09/06 02:07:48;;;;;;;9.90;5.95;;;;;;;9.57;80.86;98401.60;1700048;84;21033;-82
2021/09/06 02:10:15;;;;;;;10.85;5.92;;;;;;;9.55;79.87;98407.36;1705195;83;20997;-83
2021/09/06 02:12:43;;;;;;;10.08;5.92;;;;;;;9.47;79.94;98402.20;1729063;82;21531;-83
2021/09/06 02:15:11;;;;;;;9.85;6.25;;;;;;;9.42;81.14;98412.00;1711819;83;21021;-83
2021/09/06 02:17:38;;;;;;;10.60;6.45;;;;;;;9.37;80.49;98408.13;1728249;83;21029;-84
2021/09/06 02:20:06;;;;;;;10.80;6.60;;;;;;;9.34;80.49;98416.59;1716741;83;21093;-84
2021/09/06 02:22:32;;;;;;;10.05;5.60;;;;;;;9.31;81.84;98421.48;1700859;83;21426;-83
2021/09/06 02:25:01;;;;;;;12.88;6.17;;;;;;;9.26;81.60;98418.02;1700571;84;21111;-84
2021/09/06 02:27:30;;;;;;;10.65;6.17;;;;;;;9.21;80.71;98424.72;1700647;84;21036;-84
2021/09/06 02:29:58;;;;;;;10.18;6.53;;;;;;;9.16;82.46;98429.66;1700643;83;21044;-83
2021/09/06 02:32:26;;;;;;;10.35;6.10;;;;;;;9.16;81.93;98433.18;1700799;84;21072;-84
2021/09/06 02:35:00;;;;;;;;;;;;;;;9.15;81.71;98427.91;1702237;83;21124;-84
2021/09/06 02:37:29;;;;;;;11.05;5.75;;;;;;;9.15;81.14;98427.47;1729452;82;20108;-84
2021/09/06 02:39:55;;;;;;;13.35;6.80;;;;;;;9.11;80.56;98430.59;1726466;83;21112;-84
2021/09/06 02:42:23;;;;;;;14.20;6.35;;;;;;;9.09;81.18;98428.88;1726752;83;21056;-84
2021/09/06 02:44:51;;;;;;;11.25;6.58;;;;;;;9.07;81.39;98434.22;1727208;82;21128;-84
2021/09/06 02:47:18;;;;;;;10.95;6.53;;;;;;;9.06;80.71;98424.98;1726729;82;21040;-84
2021/09/06 02:49:45;;;;;;;11.83;6.65;;;;;;;9.04;81.52;98426.76;1726531;83;21059;-84
2021/09/06 02:52:13;;;;;;;11.68;6.20;;;;;;;9.03;81.11;98428.98;1725674;83;21072;-85
2021/09/06 02:54:40;;;;;;;11.28;7.65;;;;;;;9.02;81.19;98429.45;1726848;83;20993;-84
2021/09/06 02:57:07;;;;;;;13.45;7.90;;;;;;;9.00;80.84;98428.59;1726680;83;21056;-84
2021/09/06 02:59:34;;;;;;;19.10;9.88;;;;;;;8.99;81.15;98434.78;1726596;82;21450;-84
2021/09/06 03:02:01;;;;;;;15.70;8.65;;;;;;;9.00;81.66;98429.91;1728870;82;21525;-85
2021/09/06 03:04:28;;;;;;;17.55;9.63;;;;;;;9.01;81.27;98427.68;1741617;82;20982;-84
2021/09/06 03:06:57;;;;;;;16.10;9.65;;;;;;;9.03;81.71;98432.52;1756016;82;21036;-85
2021/09/06 03:09:24;;;;;;;17.10;9.43;;;;;;;9.06;81.97;98424.52;1737146;82;20982;-84
2021/09/06 03:11:53;;;;;;;14.47;8.45;;;;;;;9.07;82.21;98421.43;1726163;83;21496;-84
2021/09/06 03:14:22;;;;;;;14.73;7.97;;;;;;;9.10;83.26;98423.56;1734782;82;21319;-83
2021/09/06 03:16:51;;;;;;;12.80;7.80;;;;;;;9.13;82.70;98417.36;1735041;82;20980;-83
2021/09/06 03:19:19;;;;;;;12.37;8.08;;;;;;;9.15;82.92;98416.02;1726475;83;20981;-82
2021/09/06 03:21:51;;;;;;;13.03;7.53;;;;;;;9.18;83.23;98414.65;1726376;83;22167;-82
2021/09/06 03:24:19;;;;;;;12.47;7.08;;;;;;;9.23;83.53;98415.44;1726698;83;21020;-83
2021/09/06 03:26:46;;;;;;;13.20;7.72;;;;;;;9.26;83.53;98412.72;1730723;82;21450;-83
2021/09/06 03:29:12;;;;;;;16.65;7.20;;;;;;;9.33;83.72;98420.11;1743740;82;21057;-83
2021/09/06 03:31:39;;;;;;;14.15;8.08;;;;;;;9.41;83.66;98408.95;1756451;82;21013;-83
2021/09/06 03:34:06;;;;;;;12.10;7.40;;;;;;;9.46;83.59;98414.14;1756568;82;21072;-83
2021/09/06 03:36:32;;;;;;;14.95;7.78;;;;;;;9.48;84.22;98413.68;1756504;81;21028;-84
2021/09/06 03:39:00;;;;;;;11.85;8.45;;;;;;;9.51;83.79;98413.63;1756770;81;21009;-87
2021/09/06 03:41:30;;;;;;;12.80;7.45;;;;;;;9.56;83.84;98416.17;1750414;82;21048;-86
2021/09/06 03:43:59;;;;;;;14.18;7.37;;;;;;;9.57;83.30;98417.48;1746225;82;21001;-85
2021/09/06 03:46:27;;;;;;;11.55;6.80;;;;;;;9.53;82.94;98419.75;1757011;82;21403;-85
2021/09/06 03:48:55;;;;;;;15.05;6.75;;;;;;;9.51;83.17;98422.42;1756413;81;21048;-85
2021/09/06 03:51:22;;;;;;;11.53;6.95;;;;;;;9.46;82.94;98426.93;1742037;82;21490;-85
2021/09/06 03:53:48;;;;;;;13.72;7.33;;;;;;;9.42;83.34;98422.59;1747250;82;21060;-85
2021/09/06 03:56:16;;;;;;;10.15;6.70;;;;;;;9.37;83.47;98431.06;1726641;83;20992;-85
2021/09/06 03:58:43;;;;;;;14.10;6.35;;;;;;;9.33;82.57;98434.22;1747217;82;21013;-85
2021/09/06 04:01:10;;;;;;;13.45;6.85;;;;;;;9.27;83.23;98428.16;1744656;82;20985;-84
2021/09/06 04:03:37;;;;;;;11.57;7.28;;;;;;;9.23;83.11;98432.63;1741237;82;21037;-85
2021/09/06 04:06:05;;;;;;;10.23;6.40;;;;;;;9.17;82.54;98435.39;1740535;82;20972;-85
2021/09/06 04:08:33;;;;;;;9.70;5.75;;;;;;;9.12;82.39;98438.09;1740284;82;20997;-85
2021/09/06 04:11:01;;;;;;;12.00;5.87;;;;;;;9.05;81.94;98438.64;1746337;82;21001;-85
2021/09/06 04:13:29;;;;;;;9.48;5.72;;;;;;;9.01;82.20;98438.26;1739100;82;21020;-85
2021/09/06 04:15:57;;;;;;;10.28;5.70;;;;;;;8.95;82.13;98440.57;1737706;82;20980;-85
2021/09/06 04:18:26;;;;;;;12.95;6.17;;;;;;;8.89;84.25;98447.72;1740057;82;21012;-84
2021/09/06 04:20:55;;;;;;;14.05;6.00;;;;;;;8.82;82.73;98444.30;1726610;83;21390;-85
2021/09/06 04:23:22;;;;;;;11.33;6.08;;;;;;;8.78;83.22;98442.59;1726481;82;21465;-84
2021/09/06 04:25:49;;;;;;;10.15;6.33;;;;;;;8.72;82.95;98451.47;1726741;83;21003;-84
2021/09/06 04:28:15;;;;;;;11.88;6.25;;;;;;;8.65;83.64;98449.83;1726774;82;21425;-84
2021/09/06 04:30:42;;;;;;;11.18;6.83;;;;;;;8.58;83.41;98451.25;1726865;83;20995;-84
2021/09/06 04:33:10;;;;;;;13.32;6.40;;;;;;;8.56;83.54;98447.73;1724711;83;21171;-85
2021/09/06 04:35:37;;;;;;;10.43;6.33;;;;;;;8.53;82.94;98459.69;1726666;83;21491;-84
2021/09/06 04:38:04;;;;;;;12.85;6.40;;;;;;;8.54;83.40;98452.61;1705170;83;21041;-85
2021/09/06 04:40:31;;;;;;;12.03;6.65;;;;;;;8.52;83.36;98460.55;1718986;83;21012;-85
2021/09/06 04:42:58;;;;;;;12.20;6.67;;;;;;;8.54;84.77;98454.82;1775262;80;20967;-84
2021/09/06 04:45:24;;;;;;;14.87;7.55;;;;;;;8.55;83.10;98459.20;1754332;80;21023;-85
2021/09/06 04:47:51;;;;;;;12.63;6.70;;;;;;;8.57;84.93;98457.43;1774692;80;20960;-84
2021/09/06 04:50:18;;;;;;;15.93;7.62;;;;;;;8.60;83.68;98463.55;1754279;82;21000;-85
2021/09/06 04:52:44;;;;;;;13.05;7.35;;;;;;;8.63;82.92;98456.92;1781493;80;20999;-84
2021/09/06 04:55:13;;;;;;;19.12;7.92;;;;;;;8.66;83.49;98463.45;1785152;80;21044;-85
2021/09/06 04:57:41;;;;;;;18.92;7.55;;;;;;;8.68;82.77;98462.54;1785478;80;20996;-84
2021/09/06 05:00:10;;;;;;;11.63;6.83;;;;;;;8.71;83.39;98464.27;1785789;80;20988;-84
2021/09/06 05:02:37;;;;;;;14.30;7.28;;;;;;;8.76;82.96;98458.93;1762678;80;21470;-84
2021/09/06 05:05:05;;;;;;;15.00;7.75;;;;;;;8.78;82.91;98463.30;1752885;80;21018;-84
2021/09/06 05:07:34;;;;;;;15.35;7.20;;;;;;;8.82;83.20;98459.72;1759251;80;21104;-85
2021/09/06 05:10:01;;;;;;;17.70;7.75;;;;;;;8.87;83.48;98468.00;1725272;82;21468;-85
2021/09/06 05:12:28;;;;;;;16.82;7.62;;;;;;;8.94;83.12;98463.95;1770888;80;20969;-86
2021/09/06 05:14:55;;;;;;;16.37;8.33;;;;;;;9.01;83.53;98460.73;1754740;80;20968;-86
2021/09/06 05:17:22;;;;;;;13.58;7.75;;;;;;;9.08;82.86;98453.14;1782537;79;20957;-86
2021/09/06 05:19:49;;;;;;;14.05;7.62;;;;;;;9.17;83.00;98452.58;1785623;80;21446;-82
2021/09/06 05:22:18;;;;;;;15.35;7.40;;;;;;;9.29;83.45;98451.03;1784268;80;21047;-81
2021/09/06 05:24:44;;;;;;;16.32;8.80;;;;;;;9.42;83.31;98459.63;1753172;80;21468;-83
2021/09/06 05:27:11;;;;;;;14.05;8.28;;;;;;;9.54;83.75;98455.04;1774845;80;21040;-85
2021/09/06 05:29:40;;;;;;;13.55;7.67;;;;;;;9.67;84.31;98447.27;1755195;80;20976;-82
2021/09/06 05:32:11;;;;;;;17.73;7.92;;;;;;;9.81;83.69;98448.36;1773036;80;21028;-82
2021/09/06 05:34:38;;;;;;;18.45;7.60;;;;;;;9.95;83.67;98450.72;1749971;80;20961;-82
2021/09/06 05:37:04;;;;;;;14.25;8.45;;;;;;;10.09;83.58;98450.44;1785625;80;21008;-83
2021/09/06 05:39:32;;;;;;;15.30;8.33;;;;;;;10.20;83.55;98444.93;1765262;79;22111;-83
2021/09/06 05:42:00;;;;;;;12.15;7.65;;;;;;;10.30;83.28;98447.80;1756909;80;22194;-84
2021/09/06 05:44:27;;;;;;;12.93;7.90;;;;;;;10.41;83.71;98445.38;1760688;80;21064;-82
2021/09/06 05:46:54;;;;;;;15.90;7.92;;;;;;;10.56;83.40;98442.89;1773169;80;20976;-83
2021/09/06 05:49:21;;;;;;;19.10;11.45;;;;;;;10.66;83.20;98447.06;1784991;80;21012;-84
2021/09/06 05:51:51;;;;;;;21.42;10.65;;;;;;;10.78;83.05;98443.27;1784898;80;21429;-83
2021/09/06 05:54:19;;;;;;;19.60;9.48;;;;;;;10.90;82.79;98442.11;1785073;80;20997;-84
2021/09/06 05:56:46;;;;;;;18.60;9.10;;;;;;;10.98;82.51;98440.59;1769483;79;21027;-83
2021/09/06 05:59:14;;;;;;;14.75;8.30;;;;;;;11.08;82.08;98443.88;1759496;80;21446;-84
2021/09/06 06:01:42;;;;;;;17.77;9.03;;;;;;;11.17;81.70;98444.98;1765795;80;20948;-84
2021/09/06 06:04:09;;;;;;;17.55;8.53;;;;;;;11.27;81.28;98442.99;1756865;81;21064;-84
2021/09/06 06:06:39;;;;;;;15.23;8.85;;;;;;;11.37;80.78;98438.30;1756741;81;21026;-83
2021/09/06 06:09:06;;;;;;;13.75;8.35;;;;;;;11.46;79.69;98438.55;1756870;82;21035;-84
2021/09/06 06:11:38;;;;;;;12.07;7.47;;;;;;;11.56;80.03;98440.05;1757047;81;21372;-84
2021/09/06 06:14:02;;;;;;;15.25;7.65;;;;;;;11.65;79.77;98432.72;1756499;81;21050;-90
2021/09/06 06:16:31;;;;;;;12.98;6.83;;;;;;;11.75;79.44;98439.08;1772281;80;21044;-88
2021/09/06 06:18:59;;;;;;;15.18;6.33;;;;;;;11.84;79.19;98429.98;1766246;80;21405;-85
2021/09/06 06:21:29;;;;;;;9.70;5.67;;;;;;;11.96;78.62;98433.23;1757291;80;21421;-86
2021/09/06 06:24:02;;;;;;;9.80;5.83;;;;;;;12.08;78.43;98433.38;1744070;82;21437;-81
2021/09/06 06:26:46;;;;;;;16.10;6.30;;;;;;;12.19;77.71;98425.95;1753509;79;20995;-83
2021/09/06 06:29:13;;;;;;;10.32;5.55;;;;;;;12.31;77.10;98431.36;1773108;80;21026;-83
2021/09/06 06:31:41;;;;;;;12.43;6.35;;;;;;;12.40;75.89;98427.55;1762581;80;21106;-83
2021/09/06 06:34:09;;;;;;;14.25;6.58;;;;;;;12.51;76.25;98421.92;1755457;82;20972;-82
2021/09/06 06:36:37;;;;;;;28.05;15.08;;;;;;;12.61;76.38;98429.14;1755368;82;21087;-82
2021/09/06 06:39:05;;;;;;;20.15;11.48;;;;;;;12.70;75.39;98430.66;1755230;81;21024;-83
2021/09/06 06:41:33;;;;;;;8.55;5.95;;;;;;;12.79;75.08;98433.03;1758018;80;21011;-84
2021/09/06 06:44:05;;;;;;;10.55;5.83;;;;;;;12.89;74.95;98429.16;1758441;80;21002;-83
2021/09/06 06:46:34;;;;;;;12.93;6.00;;;;;;;12.99;74.41;98428.87;1754665;82;21061;-82
2021/09/06 06:49:00;;;;;;;12.90;7.12;;;;;;;13.07;73.97;98429.47;1754689;82;21385;-84
2021/09/06 06:51:29;;;;;;;14.68;7.42;;;;;;;13.18;73.42;98434.44;1759193;80;20953;-83
2021/09/06 06:53:58;;;;;;;10.80;5.62;;;;;;;13.26;73.18;98433.73;1777958;80;20933;-82
2021/09/06 06:56:26;;;;;;;10.93;5.72;;;;;;;13.35;72.94;98436.54;1773790;80;21471;-82
2021/09/06 06:58:55;;;;;;;9.45;5.15;;;;;;;13.43;72.71;98444.27;1715912;83;21059;-82
2021/09/06 07:01:22;;;;;;;11.63;4.80;;;;;;;13.52;71.82;98446.65;1716569;83;21037;-81
2021/09/06 07:03:50;;;;;;;11.12;5.00;;;;;;;13.61;71.70;98443.27;1721824;83;21018;-82
2021/09/06 07:06:17;;;;;;;8.70;4.97;;;;;;;13.69;71.51;98447.84;1785378;80;21406;-82
2021/09/06 07:08:44;;;;;;;7.58;4.45;;;;;;;13.75;71.70;98447.65;1784384;80;20952;-83
2021/09/06 07:11:11;;;;;;;8.38;4.45;;;;;;;13.84;70.64;98455.29;1762974;80;20983;-82
2021/09/06 07:13:38;;;;;;;6.97;4.60;;;;;;;13.92;71.43;98456.38;1754390;82;21088;-82
2021/09/06 07:16:05;;;;;;;6.00;4.00;;;;;;;14.01;70.75;98452.95;1754501;82;20987;-82
2021/09/06 07:18:32;;;;;;;9.85;4.53;;;;;;;14.11;70.55;98453.02;1754564;82;21012;-82
2021/09/06 07:21:00;;;;;;;9.60;3.87;;;;;;;14.20;70.14;98454.50;1754628;82;21064;-83
2021/09/06 07:23:29;;;;;;;6.08;3.90;;;;;;;14.28;70.17;98457.72;1767647;80;21401;-82
2021/09/06 07:25:56;;;;;;;6.03;3.90;;;;;;;14.36;68.79;98460.98;1756602;80;21033;-81
2021/09/06 07:28:22;;;;;;;7.37;4.50;;;;;;;14.46;68.77;98459.30;1754709;82;21074;-83
2021/09/06 07:30:50;;;;;;;9.10;4.50;;;;;;;14.52;68.35;98459.95;1756805;80;21322;-82
2021/09/06 07:33:16;;;;;;;5.42;3.67;;;;;;;14.64;67.82;98469.73;1766261;80;20940;-81
2021/09/06 07:35:43;;;;;;;7.62;4.35;;;;;;;14.74;68.31;98465.77;1767279;80;21036;-81
2021/09/06 07:38:10;;;;;;;16.82;10.18;;;;;;;14.83;68.00;98471.72;1768221;80;20960;-82
2021/09/06 07:40:37;;;;;;;16.85;9.35;;;;;;;14.87;67.10;98466.18;1770945;80;21313;-81
2021/09/06 07:43:04;;;;;;;6.62;4.72;;;;;;;14.96;67.53;98469.42;1774500;80;20925;-81
2021/09/06 07:45:31;;;;;;;9.90;4.17;;;;;;;15.03;67.58;98473.12;1785629;80;21754;-81
2021/09/06 07:47:57;;;;;;;10.18;4.42;;;;;;;15.10;67.58;98475.08;1785352;80;21004;-83
2021/09/06 07:50:38;;;;;;;9.13;5.03;;;;;;;15.17;66.25;98477.89;1784217;80;21008;-81
2021/09/06 07:53:05;;;;;;;8.65;4.50;;;;;;;15.23;66.82;98475.93;1737152;80;21599;-81
2021/09/06 07:55:31;;;;;;;7.62;4.30;;;;;;;15.29;66.59;98477.85;1771005;80;21437;-81
2021/09/06 07:57:58;;;;;;;7.95;4.40;;;;;;;15.36;66.44;98472.28;1785500;80;20941;-81
2021/09/06 08:00:26;;;;;;;7.20;4.17;;;;;;;15.42;65.88;98466.67;1785479;80;20997;-81
2021/09/06 08:02:53;;;;;;;6.17;4.00;;;;;;;15.50;65.98;98473.03;1783090;80;20976;-81
2021/09/06 08:05:26;;;;;;;7.53;4.30;;;;;;;15.57;65.72;98471.82;1775422;80;21035;-80
2021/09/06 08:07:54;;;;;;;7.10;4.17;;;;;;;15.62;63.92;98469.86;1762059;80;21058;-82
2021/09/06 08:10:21;;;;;;;8.43;4.20;;;;;;;15.71;65.03;98478.78;1767874;80;20988;-82
2021/09/06 08:12:48;;;;;;;6.58;4.58;;;;;;;15.74;64.77;98479.60;1770067;80;20996;-82
2021/09/06 08:15:17;;;;;;;9.98;4.90;;;;;;;15.77;64.11;98478.11;1764460;80;21016;-83
2021/09/06 08:17:43;;;;;;;7.20;4.72;;;;;;;15.80;64.22;98478.88;1765514;80;20956;-83
2021/09/06 08:20:16;;;;;;;7.90;4.62;;;;;;;15.90;64.38;98477.98;1774847;80;21092;-83
2021/09/06 08:22:44;;;;;;;8.55;4.67;;;;;;;15.95;64.33;98470.67;1767965;80;20909;-82
2021/09/06 08:25:13;;;;;;;8.50;4.55;;;;;;;15.99;62.22;98471.88;1770606;79;21026;-83
2021/09/06 08:27:41;;;;;;;8.90;4.60;;;;;;;16.03;61.13;98467.66;1762555;79;20984;-82
2021/09/06 08:30:12;;;;;;;9.48;4.33;;;;;;;16.11;62.08;98467.31;1768086;80;20973;-83
2021/09/06 08:32:41;;;;;;;12.20;4.92;;;;;;;16.18;62.23;98464.78;1771888;80;21362;-83
2021/09/06 08:35:09;;;;;;;12.98;4.78;;;;;;;16.27;62.61;98473.33;1769745;80;20985;-81
2021/09/06 08:37:36;;;;;;;6.35;4.35;;;;;;;16.39;63.37;98463.88;1784543;80;21024;-81
2021/09/06 08:40:09;;;;;;;7.00;4.50;;;;;;;16.48;63.42;98476.80;1784694;80;20985;-82
2021/09/06 08:42:38;;;;;;;50.52;29.67;;;;;;;16.53;62.58;98466.76;1784642;80;21004;-82
2021/09/06 08:45:09;;;;;;;10.68;6.55;;;;;;;16.58;62.55;98464.77;1784756;80;21056;-82
2021/09/06 08:47:36;;;;;;;8.05;5.42;;;;;;;16.62;62.23;98468.16;1784981;80;21023;-82
2021/09/06 08:50:08;;;;;;;7.22;4.47;;;;;;;16.63;62.22;98472.11;1784178;80;20960;-82
2021/09/06 08:52:34;;;;;;;6.80;4.87;;;;;;;16.70;62.01;98465.97;1768546;80;21501;-82
2021/09/06 08:55:02;;;;;;;7.92;4.60;;;;;;;16.77;62.15;98467.89;1765524;79;21032;-82
2021/09/06 08:57:29;;;;;;;7.03;4.78;;;;;;;16.80;61.80;98472.23;1772215;81;21386;-83
2021/09/06 09:00:05;;;;;;;6.30;4.80;;;;;;;16.85;62.36;98471.08;1772785;80;21032;-82
2021/09/06 09:02:40;;;;;;;6.28;4.70;;;;;;;16.91;61.13;98472.61;1768302;80;21014;-82
2021/09/06 09:05:11;;;;;;;8.95;4.80;;;;;;;16.98;61.94;98472.69;1764334;80;21024;-83
2021/09/06 09:07:44;;;;;;;10.95;5.10;;;;;;;17.05;61.50;98459.03;1776040;80;21024;-83
2021/09/06 09:10:32;;;;;;;9.28;4.83;;;;;;;17.12;60.87;98469.86;1755853;80;21052;-82
2021/09/06 09:13:09;;;;;;;7.55;4.65;;;;;;;17.18;60.17;98466.87;1753841;80;21401;-82
2021/09/06 09:15:54;;;;;;;11.47;5.60;;;;;;;17.26;61.10;98464.69;1769342;80;21039;-82
2021/09/06 09:18:32;;;;;;;9.83;5.20;;;;;;;17.33;60.51;98461.23;1771009;80;20933;-81
2021/09/06 09:21:13;;;;;;;35.45;25.40;;;;;;;17.35;59.66;98461.16;1757366;80;21032;-82
2021/09/06 09:23:54;;;;;;;9.75;6.15;;;;;;;17.40;59.80;98457.29;1773861;80;20936;-82
2021/09/06 09:26:24;;;;;;;13.40;5.12;;;;;;;17.47;60.18;98458.31;1751997;82;20996;-82
2021/09/06 09:29:18;;;;;;;9.90;5.35;;;;;;;17.54;60.11;98465.99;1753163;82;21075;-82
2021/09/06 09:32:09;;;;;;;10.35;4.97;;;;;;;17.65;59.38;98461.89;1754471;80;20952;-82
2021/09/06 09:34:53;;;;;;;13.30;5.72;;;;;;;17.75;59.96;98460.93;1729820;80;21003;-82
2021/09/06 09:37:27;;;;;;;15.08;5.50;;;;;;;17.87;59.64;98455.41;1753011;82;21071;-82
2021/09/06 09:39:57;;;;;;;8.30;5.25;;;;;;;17.95;58.92;98462.59;1753951;81;20996;-82
2021/09/06 09:42:26;;;;;;;9.13;4.90;;;;;;;17.99;58.66;98461.48;1753560;82;21004;-82
2021/09/06 09:44:56;;;;;;;10.98;5.00;;;;;;;18.06;57.96;98458.85;1764804;80;20964;-82
2021/09/06 09:47:50;;;;;;;11.08;4.80;;;;;;;18.18;59.06;98456.48;1769240;80;21047;-83
2021/09/06 09:50:18;;;;;;;14.95;5.95;;;;;;;18.33;59.02;98464.20;1760224;80;21035;-83
2021/09/06 09:52:45;;;;;;;16.40;9.40;;;;;;;18.46;58.60;98460.38;1770010;80;21414;-83
2021/09/06 09:55:14;;;;;;;14.28;6.45;;;;;;;18.55;58.39;98459.87;1753835;82;21015;-84
2021/09/06 09:57:42;;;;;;;10.20;5.47;;;;;;;18.64;57.87;98457.14;1755749;80;21449;-83
2021/09/06 10:00:14;;;;;;;9.83;5.58;;;;;;;18.76;57.98;98459.63;1778849;80;21028;-83
2021/09/06 10:02:43;;;;;;;10.63;5.90;;;;;;;18.86;57.47;98458.16;1758678;80;20976;-83
2021/09/06 10:05:12;;;;;;;9.58;5.75;;;;;;;18.97;56.95;98458.02;1784645;80;20960;-83
2021/09/06 10:07:44;;;;;;;10.10;6.30;;;;;;;19.08;56.33;98446.70;1784494;80;21047;-81
2021/09/06 10:10:19;;;;;;;9.68;5.40;;;;;;;19.21;55.63;98452.23;1763227;80;21023;-83
2021/09/06 10:12:51;;;;;;;11.12;5.40;;;;;;;19.37;55.49;98456.23;1757345;80;21529;-83
2021/09/06 10:15:22;;;;;;;10.90;5.78;;;;;;;19.51;56.64;98450.92;1762913;80;21641;-82
2021/09/06 10:17:51;;;;;;;9.00;5.90;;;;;;;19.63;56.10;98444.41;1767189;80;21083;-85
2021/09/06 10:20:24;;;;;;;21.75;6.85;;;;;;;19.74;55.84;98447.81;1762110;80;20980;-85
2021/09/06 10:23:08;;;;;;;9.98;5.78;;;;;;;19.83;53.91;98455.33;1756530;80;21146;-84
2021/09/06 10:25:40;;;;;;;9.85;5.72;;;;;;;19.87;54.93;98442.09;1768784;80;21040;-83
2021/09/06 10:28:13;;;;;;;11.90;9.63;;;;;;;19.97;54.08;98440.18;1770540;80;21007;-83
2021/09/06 10:30:46;;;;;;;26.85;19.27;;;;;;;20.05;53.74;98446.84;1754813;79;21135;-82
2021/09/06 10:33:27;;;;;;;12.90;7.28;;;;;;;20.12;53.31;98443.30;1754185;82;21390;-83
2021/09/06 10:36:18;;;;;;;8.33;6.40;;;;;;;20.09;51.96;98447.52;1753205;82;21422;-83
2021/09/06 10:38:53;;;;;;;10.28;5.62;;;;;;;20.25;52.92;98440.70;1759968;80;21027;-83
2021/09/06 10:41:24;;;;;;;8.58;5.72;;;;;;;21.28;52.27;98441.41;1777304;80;20960;-82
2021/09/06 10:43:56;;;;;;;15.95;5.83;;;;;;;22.71;49.07;98438.87;1785996;80;20957;-83
2021/09/06 10:46:29;;;;;;;9.55;6.08;;;;;;;23.81;42.03;98438.83;1768863;80;20979;-83
2021/09/06 10:49:03;;;;;;;8.43;6.08;;;;;;;24.57;39.52;98433.90;1756832;80;22240;-84
2021/09/06 10:51:34;;;;;;;9.30;5.87;;;;;;;25.46;42.65;98420.77;1781706;80;21485;-84
2021/09/06 10:54:07;;;;;;;6.92;5.62;;;;;;;26.40;37.99;98425.91;1788832;80;20979;-82
2021/09/06 10:56:35;;;;;;;10.40;6.07;;;;;;;27.18;40.28;98431.73;1788628;80;21405;-82
2021/09/06 10:59:02;;;;;;;9.13;5.62;;;;;;;28.02;38.73;98434.39;1789326;80;21576;-82
2021/09/06 11:01:37;;;;;;;6.45;5.70;;;;;;;28.17;34.44;98427.11;1789902;80;21429;-82
2021/09/06 11:04:01;;;;;;;7.75;5.40;;;;;;;28.92;38.14;98423.55;1783982;80;21043;-82
2021/09/06 11:06:30;;;;;;;8.73;6.10;;;;;;;29.59;36.73;98422.38;1761807;80;20984;-83
2021/09/06 11:09:00;;;;;;;8.85;5.75;;;;;;;30.11;34.69;98420.77;1777163;80;20964;-82
2021/09/06 11:11:31;;;;;;;6.95;6.20;;;;;;;30.50;32.69;98416.70;1790499;80;21038;-82
2021/09/06 11:13:59;;;;;;;8.58;6.03;;;;;;;30.85;32.48;98416.71;1790485;80;21438;-83
2021/09/06 11:16:38;;;;;;;7.67;5.97;;;;;;;31.32;32.43;98408.47;1790191;80;20953;-84
2021/09/06 11:19:14;;;;;;;8.00;5.87;;;;;;;31.67;30.63;98404.19;1777873;80;20995;-83
2021/09/06 11:21:42;;;;;;;8.65;6.10;;;;;;;31.87;30.49;98405.23;1790507;80;21062;-84
2021/09/06 11:24:11;;;;;;;8.88;5.70;;;;;;;31.91;29.99;98409.34;1790720;80;21062;-83
2021/09/06 11:26:42;;;;;;;6.78;6.00;;;;;;;32.21;30.61;98397.83;1790865;80;21453;-83
2021/09/06 11:29:09;;;;;;;9.68;6.10;;;;;;;32.51;29.32;98395.36;1790149;80;20975;-84
2021/09/06 11:31:37;;;;;;;8.55;6.15;;;;;;;32.74;29.09;98396.80;1790828;80;21016;-83
2021/09/06 11:34:06;;;;;;;6.70;6.00;;;;;;;32.95;28.14;98397.22;1790590;80;21019;-83
2021/09/06 11:36:34;;;;;;;6.42;5.55;;;;;;;33.18;28.29;98402.77;1790682;80;21441;-83
2021/09/06 11:39:02;;;;;;;10.65;6.35;;;;;;;33.28;28.05;98403.38;1776772;80;21027;-83
2021/09/06 11:41:29;;;;;;;8.15;6.17;;;;;;;33.33;27.79;98404.73;1743081;80;21051;-83